createdAt,value
2019-05-20T00:02:25.985Z,73.75
2019-05-20T00:04:47.409Z,74.53
2019-05-20T00:07:12.847Z,74.67
2019-05-20T00:09:38.329Z,75.32
2019-05-20T00:12:03.799Z,75.58
2019-05-20T00:14:29.379Z,75.18
2019-05-20T00:16:54.926Z,74.98
2019-05-20T00:19:20.378Z,74.75
2019-05-20T00:21:46.400Z,74.60
2019-05-20T00:24:11.855Z,74.05
2019-05-20T00:26:37.308Z,74.44
2019-05-20T00:29:02.767Z,74.39
2019-05-20T00:31:28.270Z,74.23
2019-05-20T00:33:53.729Z,74.52
2019-05-20T00:36:19.533Z,74.50
2019-05-20T00:38:47.466Z,74.37
2019-05-20T00:41:12.857Z,74.71
2019-05-20T00:43:38.331Z,74.50
2019-05-20T00:46:03.802Z,75.11
2019-05-20T00:48:29.262Z,74.78
2019-05-20T00:50:54.721Z,74.62
2019-05-20T00:53:20.180Z,75.17
2019-05-20T00:55:45.630Z,75.67
2019-05-20T00:58:11.184Z,75.62
2019-05-20T01:00:37.010Z,76.96
2019-05-20T01:03:02.462Z,76.53
2019-05-20T01:05:27.924Z,77.20
2019-05-20T01:07:53.385Z,77.23
2019-05-20T01:10:18.829Z,80.04
2019-05-20T01:12:44.291Z,78.91
2019-05-20T01:15:10.235Z,79.56
2019-05-20T01:17:35.790Z,79.83
2019-05-20T01:20:01.289Z,80.22
2019-05-20T01:22:26.733Z,79.83
2019-05-20T01:24:52.165Z,79.42
2019-05-20T01:27:17.638Z,79.34
2019-05-20T01:29:43.129Z,79.46
2019-05-20T01:32:08.865Z,78.83
2019-05-20T01:34:34.352Z,79.21
2019-05-20T01:36:59.874Z,80.06
2019-05-20T01:39:25.402Z,80.11
2019-05-20T01:41:50.844Z,80.61
2019-05-20T01:44:16.554Z,79.26
2019-05-20T01:46:42.264Z,78.46
2019-05-20T01:49:07.885Z,78.68
2019-05-20T01:51:33.279Z,79.45
2019-05-20T01:53:58.773Z,79.43
2019-05-20T01:56:24.403Z,79.76
2019-05-20T01:58:50.140Z,79.02
2019-05-20T02:01:15.850Z,78.84
2019-05-20T02:03:41.304Z,80.12
2019-05-20T02:06:07.025Z,81.38
2019-05-20T02:08:38.571Z,79.71
2019-05-20T02:11:04.027Z,80.63
2019-05-20T02:13:48.273Z,81.18
2019-05-20T02:16:13.949Z,80.32
2019-05-20T02:18:39.717Z,79.33
2019-05-20T02:21:05.511Z,80.19
2019-05-20T02:23:30.951Z,79.54
2019-05-20T02:25:56.451Z,80.14
2019-05-20T02:28:21.905Z,79.75
2019-05-20T02:30:47.687Z,81.22
2019-05-20T02:33:13.160Z,80.37
2019-05-20T02:35:38.640Z,79.48
2019-05-20T02:38:04.173Z,80.52
2019-05-20T02:40:29.553Z,79.61
2019-05-20T02:42:55.521Z,79.37
2019-05-20T02:45:21.170Z,78.74
2019-05-20T02:47:46.478Z,78.55
2019-05-20T02:50:12.145Z,79.93
2019-05-20T02:52:38.065Z,81.11
2019-05-20T02:55:03.597Z,80.76
2019-05-20T02:57:29.379Z,80.26
2019-05-20T02:59:55.064Z,79.95
2019-05-20T03:02:20.842Z,81.04
2019-05-20T03:04:46.505Z,79.81
2019-05-20T03:07:12.468Z,79.42
2019-05-20T03:09:37.863Z,79.35
2019-05-20T03:12:03.637Z,78.89
2019-05-20T03:14:29.191Z,79.02
2019-05-20T03:16:55.085Z,79.68
2019-05-20T03:19:20.763Z,80.15
2019-05-20T03:21:46.576Z,80.25
2019-05-20T03:24:12.683Z,79.61
2019-05-20T03:26:38.924Z,79.42
2019-05-20T03:29:04.358Z,79.97
2019-05-20T03:31:30.540Z,79.63
2019-05-20T03:33:56.630Z,79.71
2019-05-20T03:36:22.547Z,79.36
2019-05-20T03:38:48.340Z,78.77
2019-05-20T03:41:13.759Z,80.07
2019-05-20T03:43:39.172Z,80.12
2019-05-20T03:46:04.781Z,79.69
2019-05-20T03:48:30.470Z,80.22
2019-05-20T03:50:56.695Z,80.44
2019-05-20T03:53:22.488Z,81.03
2019-05-20T03:55:48.041Z,79.96
2019-05-20T03:58:14.135Z,78.51
2019-05-20T04:00:47.764Z,79.62
2019-05-20T04:03:14.757Z,80.56
2019-05-20T04:05:41.013Z,79.56
2019-05-20T04:08:07.165Z,80.25
2019-05-20T04:10:41.290Z,81.03
2019-05-20T04:13:07.032Z,79.99
2019-05-20T04:15:32.831Z,79.21
2019-05-20T04:17:59.818Z,78.89
2019-05-20T04:20:25.488Z,78.62
2019-05-20T04:22:51.246Z,78.88
2019-05-20T04:25:19.326Z,79.20
2019-05-20T04:27:45.277Z,79.74
2019-05-20T04:30:11.134Z,78.65
2019-05-20T04:32:37.136Z,78.38
2019-05-20T04:35:20.715Z,77.75
2019-05-20T04:37:31.043Z,77.04
2019-05-20T04:39:56.963Z,78.09
2019-05-20T04:42:22.732Z,78.88
2019-05-20T04:44:48.346Z,79.34
2019-05-20T04:47:13.788Z,80.12
2019-05-20T04:49:46.484Z,79.28
2019-05-20T04:52:11.941Z,78.72
2019-05-20T04:54:37.435Z,79.22
2019-05-20T04:57:03.676Z,78.71
2019-05-20T04:59:29.049Z,78.82
2019-05-20T05:01:54.590Z,80.01
2019-05-20T05:04:20.067Z,79.87
2019-05-20T05:06:45.544Z,79.92
2019-05-20T05:09:11.271Z,79.06
2019-05-20T05:11:37.022Z,79.23
2019-05-20T05:14:02.526Z,77.92
2019-05-20T05:16:27.972Z,80.15
2019-05-20T05:18:53.719Z,79.47
2019-05-20T05:21:19.589Z,79.85
2019-05-20T05:23:58.383Z,79.96
2019-05-20T05:26:12.211Z,80.24
2019-05-20T05:28:37.666Z,81.07
2019-05-20T05:31:03.178Z,80.00
2019-05-20T05:33:28.544Z,79.93
2019-05-20T05:35:54.304Z,80.21
2019-05-20T05:38:19.765Z,79.81
2019-05-20T05:40:45.236Z,80.10
2019-05-20T05:43:10.786Z,80.75
2019-05-20T05:45:36.519Z,80.55
2019-05-20T05:48:01.977Z,79.50
2019-05-20T05:50:27.813Z,79.54
2019-05-20T05:52:53.274Z,80.05
2019-05-20T05:55:18.759Z,79.06
2019-05-20T05:57:44.458Z,78.29
2019-05-20T06:00:10.845Z,78.68
2019-05-20T06:02:36.405Z,78.93
2019-05-20T06:05:01.797Z,78.33
2019-05-20T06:07:27.275Z,79.14
2019-05-20T06:09:52.751Z,79.53
2019-05-20T06:12:18.262Z,79.65
2019-05-20T06:14:43.736Z,79.05
2019-05-20T06:17:09.217Z,79.21
2019-05-20T06:19:34.588Z,78.73
2019-05-20T06:22:00.151Z,79.63
2019-05-20T06:24:25.569Z,79.95
2019-05-20T06:26:51.159Z,79.82
2019-05-20T06:29:16.843Z,79.79
2019-05-20T06:31:42.615Z,78.51
2019-05-20T06:34:08.115Z,78.33
2019-05-20T06:36:37.676Z,78.15
2019-05-20T06:39:13.524Z,79.41
2019-05-20T06:41:39.252Z,79.19
2019-05-20T06:44:06.636Z,79.16
2019-05-20T06:46:32.348Z,79.47
2019-05-20T06:49:00.899Z,78.34
2019-05-20T06:51:27.051Z,77.81
2019-05-20T06:53:52.903Z,78.01
2019-05-20T06:56:18.685Z,77.59
2019-05-20T06:58:44.423Z,77.82
2019-05-20T07:01:09.887Z,77.97
2019-05-20T07:03:36.276Z,78.55
2019-05-20T07:06:02.145Z,77.85
2019-05-20T07:08:27.642Z,78.30
2019-05-20T07:10:53.785Z,77.82
2019-05-20T07:13:19.700Z,77.78
2019-05-20T07:15:45.344Z,77.75
2019-05-20T07:18:11.144Z,78.37
2019-05-20T07:20:37.880Z,78.13
2019-05-20T07:23:03.482Z,77.90
2019-05-20T07:25:29.260Z,78.27
2019-05-20T07:27:55.177Z,78.02
2019-05-20T07:30:20.787Z,78.08
2019-05-20T07:32:46.438Z,76.83
2019-05-20T07:35:28.949Z,76.64
2019-05-20T07:37:40.273Z,77.93
2019-05-20T07:40:06.416Z,77.73
2019-05-20T07:42:32.259Z,78.54
2019-05-20T07:44:57.726Z,77.29
2019-05-20T07:47:23.314Z,77.69
2019-05-20T07:49:49.483Z,77.58
2019-05-20T07:52:15.505Z,76.67
2019-05-20T07:54:41.353Z,77.21
2019-05-20T07:57:11.688Z,78.06
2019-05-20T07:59:41.317Z,78.01
2019-05-20T08:02:07.654Z,77.98
2019-05-20T08:04:33.298Z,77.90
2019-05-20T08:06:59.385Z,78.35
2019-05-20T08:09:24.882Z,78.19
2019-05-20T08:11:50.796Z,78.32
2019-05-20T08:14:16.249Z,77.24
2019-05-20T08:16:42.192Z,77.71
2019-05-20T08:19:08.061Z,77.24
2019-05-20T08:21:33.683Z,77.62
2019-05-20T08:23:59.380Z,77.58
2019-05-20T08:26:25.100Z,77.59
2019-05-20T08:28:51.345Z,77.18
2019-05-20T08:31:16.862Z,77.25
2019-05-20T08:33:42.484Z,76.62
2019-05-20T08:36:08.065Z,76.59
2019-05-20T08:38:33.745Z,77.47
2019-05-20T08:40:59.638Z,76.90
2019-05-20T08:43:25.355Z,76.00
2019-05-20T08:45:50.987Z,76.38
2019-05-20T08:48:16.785Z,76.00
2019-05-20T08:50:42.696Z,76.01
2019-05-20T08:53:09.853Z,76.23
2019-05-20T08:55:35.359Z,75.23
2019-05-20T08:58:00.845Z,76.15
2019-05-20T09:00:26.692Z,75.92
2019-05-20T09:02:52.282Z,76.35
2019-05-20T09:05:18.105Z,76.73
2019-05-20T09:07:43.953Z,76.73
2019-05-20T09:10:09.576Z,77.15
2019-05-20T09:12:34.979Z,77.19
2019-05-20T09:15:00.507Z,76.76
2019-05-20T09:17:25.987Z,76.39
2019-05-20T09:19:51.491Z,75.86
2019-05-20T09:22:17.010Z,75.88
2019-05-20T09:24:42.697Z,75.39
2019-05-20T09:27:08.230Z,75.62
2019-05-20T09:29:33.705Z,75.25
2019-05-20T09:31:59.170Z,75.37
2019-05-20T09:34:26.009Z,76.20
2019-05-20T09:36:51.552Z,76.28
2019-05-20T09:39:17.037Z,75.83
2019-05-20T09:41:46.138Z,75.83
2019-05-20T09:44:11.885Z,75.54
2019-05-20T09:46:37.364Z,75.25
2019-05-20T09:49:03.348Z,74.37
2019-05-20T09:51:28.755Z,74.95
2019-05-20T09:53:54.271Z,76.18
2019-05-20T09:56:19.786Z,75.20
2019-05-20T09:58:45.499Z,75.73
2019-05-20T10:01:11.077Z,74.80
2019-05-20T10:03:38.900Z,75.12
2019-05-20T10:06:04.484Z,74.78
2019-05-20T10:08:39.051Z,74.96
2019-05-20T10:10:59.823Z,75.16
2019-05-20T10:13:36.028Z,74.89
2019-05-20T10:16:01.503Z,74.37
2019-05-20T10:18:36.605Z,73.75
2019-05-20T10:20:54.472Z,74.58
2019-05-20T10:23:19.844Z,74.29
2019-05-20T10:25:45.826Z,73.78
2019-05-20T10:28:11.308Z,73.78
2019-05-20T10:30:36.754Z,73.23
2019-05-20T10:33:02.219Z,74.21
2019-05-20T10:35:27.663Z,73.96
2019-05-20T10:37:53.113Z,74.47
2019-05-20T10:40:18.981Z,73.99
2019-05-20T10:42:44.375Z,74.67
2019-05-20T10:45:09.904Z,74.63
2019-05-20T10:47:35.355Z,73.81
2019-05-20T10:50:01.090Z,73.89
2019-05-20T10:52:26.571Z,74.09
2019-05-20T10:54:52.340Z,74.59
2019-05-20T10:57:17.782Z,75.08
2019-05-20T10:59:43.370Z,74.05
2019-05-20T11:02:09.129Z,74.44
2019-05-20T11:04:35.558Z,74.02
2019-05-20T11:07:01.225Z,74.51
2019-05-20T11:09:26.977Z,74.46
2019-05-20T11:11:52.422Z,75.38
2019-05-20T11:14:17.921Z,75.74
2019-05-20T11:16:43.454Z,75.19
2019-05-20T11:19:08.901Z,75.47
2019-05-20T11:21:34.387Z,74.96
2019-05-20T11:23:59.844Z,74.85
2019-05-20T11:26:25.304Z,74.55
2019-05-20T11:28:51.016Z,74.76
2019-05-20T11:31:16.503Z,74.75
2019-05-20T11:33:41.910Z,75.72
2019-05-20T11:36:07.351Z,75.75
2019-05-20T11:38:32.792Z,75.43
2019-05-20T11:40:58.287Z,75.14
2019-05-20T11:43:23.896Z,74.73
2019-05-20T11:45:49.484Z,74.52
2019-05-20T11:48:15.191Z,75.42
2019-05-20T11:50:41.109Z,74.94
2019-05-20T11:53:06.761Z,74.39
2019-05-20T11:55:32.296Z,73.97
2019-05-20T11:58:15.224Z,74.99
2019-05-20T12:00:31.958Z,74.88
2019-05-20T12:02:57.508Z,74.97
2019-05-20T12:05:22.956Z,74.26
2019-05-20T12:07:48.256Z,74.17
2019-05-20T12:10:13.716Z,74.26
2019-05-20T12:12:39.358Z,73.68
2019-05-20T12:15:06.272Z,73.75
2019-05-20T12:17:32.248Z,74.03
2019-05-20T12:19:57.872Z,73.21
2019-05-20T12:22:23.919Z,73.35
2019-05-20T12:24:51.731Z,73.51
2019-05-20T12:27:19.170Z,74.03
2019-05-20T12:29:46.157Z,73.70
2019-05-20T12:32:11.751Z,73.82
2019-05-20T12:34:37.569Z,73.74
2019-05-20T12:37:03.014Z,73.99
2019-05-20T12:39:28.485Z,73.77
2019-05-20T12:41:53.904Z,73.48
2019-05-20T12:44:24.270Z,73.31
2019-05-20T12:46:49.852Z,73.62
2019-05-20T12:49:15.758Z,73.85
2019-05-20T12:51:41.483Z,73.88
2019-05-20T12:54:06.940Z,73.81
2019-05-20T12:56:32.565Z,73.35
2019-05-20T12:58:58.379Z,73.42
2019-05-20T13:01:23.867Z,73.73
2019-05-20T13:03:49.533Z,73.22
2019-05-20T13:06:15.041Z,73.87
2019-05-20T13:08:45.087Z,73.13
2019-05-20T13:11:10.573Z,73.71
2019-05-20T13:13:37.151Z,73.72
2019-05-20T13:16:02.717Z,75.47
2019-05-20T13:18:28.276Z,74.93
2019-05-20T13:20:53.739Z,74.55
2019-05-20T13:23:19.422Z,74.46
2019-05-20T13:25:44.940Z,74.77
2019-05-20T13:28:10.737Z,74.24
2019-05-20T13:30:46.071Z,73.94
2019-05-20T13:33:11.909Z,73.27
2019-05-20T13:35:37.478Z,72.96
2019-05-20T13:38:05.914Z,73.03
2019-05-20T13:40:46.053Z,73.11
2019-05-20T13:42:58.950Z,73.06
2019-05-20T13:45:24.454Z,73.81
2019-05-20T13:47:49.910Z,73.42
2019-05-20T13:50:15.662Z,73.25
2019-05-20T13:52:41.137Z,73.58
2019-05-20T13:55:06.821Z,73.66
2019-05-20T13:57:32.532Z,74.11
2019-05-20T13:59:58.015Z,74.00
2019-05-20T14:02:23.491Z,73.69
2019-05-20T14:04:48.932Z,73.71
2019-05-20T14:07:14.517Z,74.00
2019-05-20T14:09:40.321Z,73.55
2019-05-20T14:12:05.765Z,74.25
2019-05-20T14:14:31.266Z,74.55
2019-05-20T14:16:56.760Z,74.54
2019-05-20T14:19:22.855Z,75.27
2019-05-20T14:21:48.425Z,74.87
2019-05-20T14:24:13.956Z,74.26
2019-05-20T14:26:39.786Z,74.29
2019-05-20T14:29:05.273Z,74.68
2019-05-20T14:31:30.635Z,75.41
2019-05-20T14:33:56.014Z,74.21
2019-05-20T14:36:38.536Z,74.77
2019-05-20T14:38:48.815Z,75.20
2019-05-20T14:41:21.686Z,74.46
2019-05-20T14:43:42.009Z,74.44
2019-05-20T14:46:07.715Z,74.31
2019-05-20T14:48:33.331Z,74.23
2019-05-20T14:50:58.925Z,74.57
2019-05-20T14:53:24.404Z,74.40
2019-05-20T14:55:49.965Z,74.86
2019-05-20T14:58:15.720Z,74.88
2019-05-20T15:00:41.526Z,75.02
2019-05-20T15:03:07.030Z,74.75
2019-05-20T15:05:40.142Z,74.86
2019-05-20T15:08:17.309Z,74.27
2019-05-20T15:10:42.985Z,74.52
2019-05-20T15:13:08.638Z,74.45
2019-05-20T15:15:34.649Z,74.48
2019-05-20T15:18:00.343Z,73.75
2019-05-20T15:20:25.809Z,74.50
2019-05-20T15:22:52.150Z,74.83
2019-05-20T15:25:19.872Z,74.58
2019-05-20T15:27:45.741Z,74.34
2019-05-20T15:30:11.910Z,74.31
2019-05-20T15:32:37.378Z,74.60
2019-05-20T15:35:03.103Z,75.17
2019-05-20T15:37:28.647Z,75.46
2019-05-20T15:39:54.014Z,75.08
2019-05-20T15:42:19.756Z,74.73
2019-05-20T15:44:45.141Z,74.65
2019-05-20T15:47:18.492Z,75.31
2019-05-20T15:49:41.789Z,74.40
2019-05-20T15:52:07.425Z,74.82
2019-05-20T15:54:32.864Z,74.45
2019-05-20T15:56:58.483Z,74.30
2019-05-20T15:59:24.060Z,73.80
2019-05-20T16:01:49.639Z,74.67
2019-05-20T16:04:14.988Z,74.18
2019-05-20T16:06:40.596Z,74.19
2019-05-20T16:09:06.939Z,73.97
2019-05-20T16:11:32.503Z,74.29
2019-05-20T16:13:57.997Z,73.29
2019-05-20T16:16:23.457Z,73.54
2019-05-20T16:18:48.966Z,73.28
2019-05-20T16:21:14.531Z,73.51
2019-05-20T16:23:40.060Z,73.98
2019-05-20T16:26:05.689Z,73.68
2019-05-20T16:28:31.269Z,73.40
2019-05-20T16:30:57.056Z,73.55
2019-05-20T16:33:22.980Z,73.47
2019-05-20T16:35:48.504Z,73.73
2019-05-20T16:38:14.274Z,73.37
2019-05-20T16:40:40.071Z,73.95
2019-05-20T16:43:05.468Z,73.64
2019-05-20T16:45:30.956Z,73.50
2019-05-20T16:47:56.677Z,73.47
2019-05-20T16:50:22.566Z,73.82
2019-05-20T16:52:48.163Z,74.03
2019-05-20T16:55:14.087Z,73.68
2019-05-20T16:57:39.611Z,74.13
2019-05-20T17:00:14.698Z,74.29
2019-05-20T17:02:33.264Z,73.84
2019-05-20T17:04:58.979Z,74.21
2019-05-20T17:07:24.801Z,74.17
2019-05-20T17:09:50.191Z,74.04
2019-05-20T17:12:15.598Z,73.48
2019-05-20T17:14:41.159Z,74.18
2019-05-20T17:17:07.138Z,73.39
2019-05-20T17:19:35.882Z,73.88
2019-05-20T17:22:01.352Z,74.08
2019-05-20T17:24:27.788Z,73.49
2019-05-20T17:26:53.643Z,74.22
2019-05-20T17:29:19.532Z,74.03
2019-05-20T17:31:45.024Z,74.03
2019-05-20T17:34:10.792Z,74.44
2019-05-20T17:36:36.379Z,74.07
2019-05-20T17:39:02.096Z,73.95
2019-05-20T17:41:27.661Z,74.29
2019-05-20T17:43:53.070Z,74.70
2019-05-20T17:46:20.021Z,75.14
2019-05-20T17:48:45.586Z,74.74
2019-05-20T17:51:11.644Z,75.25
2019-05-20T17:53:37.025Z,74.45
2019-05-20T17:56:02.587Z,74.02
2019-05-20T17:58:28.033Z,74.19
2019-05-20T18:00:54.450Z,74.32
2019-05-20T18:03:20.512Z,74.23
2019-05-20T18:05:45.954Z,74.93
2019-05-20T18:08:11.404Z,74.91
2019-05-20T18:10:36.873Z,74.93
2019-05-20T18:13:02.457Z,75.27
2019-05-20T18:15:28.014Z,74.61
2019-05-20T18:17:53.762Z,74.79
2019-05-20T18:20:19.716Z,74.47
2019-05-20T18:22:45.699Z,74.90
2019-05-20T18:25:11.452Z,74.95
2019-05-20T18:27:36.923Z,75.15
2019-05-20T18:30:02.670Z,75.06
2019-05-20T18:32:28.162Z,75.01
2019-05-20T18:34:53.582Z,74.96
2019-05-20T18:37:19.418Z,75.14
2019-05-20T18:39:44.941Z,74.61
2019-05-20T18:42:10.681Z,74.44
2019-05-20T18:44:37.694Z,75.06
2019-05-20T18:47:03.221Z,75.00
2019-05-20T18:49:29.155Z,75.09
2019-05-20T18:51:54.949Z,74.70
2019-05-20T18:54:22.958Z,75.27
2019-05-20T18:56:48.428Z,75.05
2019-05-20T18:59:14.364Z,74.94
2019-05-20T19:01:50.951Z,75.31
2019-05-20T19:04:07.207Z,76.13
2019-05-20T19:06:32.704Z,75.84
2019-05-20T19:08:58.273Z,76.29
2019-05-20T19:11:24.125Z,75.47
2019-05-20T19:13:49.562Z,75.88
2019-05-20T19:16:15.431Z,76.08
2019-05-20T19:18:41.043Z,76.20
2019-05-20T19:21:08.590Z,76.47
2019-05-20T19:23:34.254Z,76.36
2019-05-20T19:25:59.815Z,75.68
2019-05-20T19:28:26.876Z,75.44
2019-05-20T19:30:52.457Z,75.65
2019-05-20T19:33:18.504Z,75.55
2019-05-20T19:35:43.994Z,75.82
2019-05-20T19:38:10.136Z,75.43
2019-05-20T19:40:35.968Z,76.72
2019-05-20T19:43:01.544Z,76.84
2019-05-20T19:45:27.236Z,76.69
2019-05-20T19:47:52.992Z,77.05
2019-05-20T19:50:18.494Z,76.63
2019-05-20T19:52:44.615Z,76.52
2019-05-20T19:55:10.947Z,76.99
2019-05-20T19:57:37.331Z,76.88
2019-05-20T20:00:03.286Z,76.72
2019-05-20T20:02:29.067Z,76.97
2019-05-20T20:04:55.229Z,77.11
2019-05-20T20:07:21.141Z,77.35
2019-05-20T20:09:46.547Z,76.61
2019-05-20T20:12:12.088Z,76.83
2019-05-20T20:14:37.559Z,76.54
2019-05-20T20:17:03.025Z,77.10
2019-05-20T20:19:28.830Z,77.47
2019-05-20T20:21:54.709Z,77.36
2019-05-20T20:24:26.433Z,77.66
2019-05-20T20:26:52.727Z,77.69
2019-05-20T20:29:18.398Z,78.39
2019-05-20T20:31:43.901Z,78.50
2019-05-20T20:34:09.373Z,78.49
2019-05-20T20:36:35.210Z,77.60
2019-05-20T20:39:01.025Z,78.52
2019-05-20T20:41:40.632Z,77.50
2019-05-20T20:44:06.668Z,77.53
2019-05-20T20:46:32.105Z,77.68
2019-05-20T20:48:57.656Z,77.66
2019-05-20T20:51:23.844Z,77.29
2019-05-20T20:53:52.266Z,77.70
2019-05-20T20:56:25.353Z,78.86
2019-05-20T20:58:48.507Z,79.13
2019-05-20T21:01:14.517Z,79.19
2019-05-20T21:03:40.231Z,79.69
2019-05-20T21:06:05.776Z,79.26
2019-05-20T21:08:31.682Z,79.61
2019-05-20T21:10:57.114Z,79.46
2019-05-20T21:13:22.831Z,79.85
2019-05-20T21:15:48.652Z,79.61
2019-05-20T21:18:14.207Z,79.56
2019-05-20T21:20:39.781Z,79.95
2019-05-20T21:23:05.245Z,80.01
2019-05-20T21:25:30.722Z,80.29
2019-05-20T21:27:56.250Z,80.27
2019-05-20T21:30:21.850Z,81.24
2019-05-20T21:33:08.704Z,81.83
2019-05-20T21:35:24.109Z,80.84
2019-05-20T21:37:51.443Z,80.22
2019-05-20T21:40:17.054Z,81.30
2019-05-20T21:42:42.806Z,80.73
2019-05-20T21:45:08.993Z,79.62
2019-05-20T21:47:34.564Z,79.67
2019-05-20T21:49:59.956Z,80.15
2019-05-20T21:52:25.488Z,80.29
2019-05-20T21:54:52.076Z,80.50
2019-05-20T21:57:17.568Z,80.94
2019-05-20T21:59:43.047Z,80.33
2019-05-20T22:02:08.795Z,80.74
2019-05-20T22:04:34.261Z,79.94
2019-05-20T22:06:59.730Z,80.42
2019-05-20T22:09:25.221Z,80.88
2019-05-20T22:11:50.736Z,80.31
2019-05-20T22:14:16.195Z,80.62
2019-05-20T22:16:41.594Z,81.36
2019-05-20T22:19:07.025Z,81.41
2019-05-20T22:21:39.050Z,81.11
2019-05-20T22:24:06.265Z,81.97
2019-05-20T22:26:31.714Z,81.89
2019-05-20T22:28:57.186Z,82.35
2019-05-20T22:31:22.620Z,82.36
2019-05-20T22:33:48.096Z,82.42
2019-05-20T22:36:13.563Z,82.80
2019-05-20T22:38:39.088Z,82.37
2019-05-20T22:41:04.850Z,82.23
2019-05-20T22:43:30.840Z,82.65
2019-05-20T22:45:56.291Z,83.30
2019-05-20T22:48:21.788Z,83.38
2019-05-20T22:50:48.888Z,84.09
2019-05-20T22:53:14.549Z,84.10
2019-05-20T22:55:40.060Z,84.67
2019-05-20T22:58:07.026Z,85.89
2019-05-20T23:00:32.531Z,85.81
2019-05-20T23:02:58.213Z,86.04
2019-05-20T23:05:24.099Z,86.14
2019-05-20T23:07:49.545Z,85.33
2019-05-20T23:10:16.152Z,84.48
2019-05-20T23:12:41.622Z,85.40
2019-05-20T23:15:07.492Z,85.42
2019-05-20T23:17:32.860Z,85.84
2019-05-20T23:19:58.331Z,86.81
2019-05-20T23:22:23.723Z,86.29
2019-05-20T23:24:49.411Z,86.47
2019-05-20T23:27:14.889Z,86.97
2019-05-20T23:29:40.275Z,87.37
2019-05-20T23:32:05.984Z,86.75
2019-05-20T23:34:31.457Z,87.39
2019-05-20T23:36:57.186Z,87.34
2019-05-20T23:39:22.644Z,86.97
2019-05-20T23:41:48.387Z,86.18
2019-05-20T23:44:13.871Z,85.58
2019-05-20T23:46:39.325Z,85.96
2019-05-20T23:49:04.811Z,86.43
2019-05-20T23:51:30.223Z,86.59
2019-05-20T23:53:55.686Z,87.60
2019-05-20T23:56:21.148Z,87.39
2019-05-20T23:58:46.781Z,87.23
